sensor_id;sensor_type;location;lat;lon;timestamp;pressure;altitude;pressure_sealevel;temperature;humidity
33949;BME280;20229;49.856;19.030;2023-03-01T00:03:12;102893.59;;;-3.40;83.31
33949;BME280;20229;49.856;19.030;2023-03-01T00:08:26;102890.76;;;-3.44;83.43
33949;BME280;20229;49.856;19.030;2023-03-01T00:13:41;102878.04;;;-3.51;84.55
33949;BME280;20229;49.856;19.030;2023-03-01T00:18:56;102878.73;;;-3.57;84.86
33949;BME280;20229;49.856;19.030;2023-03-01T00:24:11;102878.64;;;-3.60;84.25
33949;BME280;20229;49.856;19.030;2023-03-01T00:29:25;102870.51;;;-3.63;84.13
33949;BME280;20229;49.856;19.030;2023-03-01T00:34:39;102866.75;;;-3.68;84.90
33949;BME280;20229;49.856;19.030;2023-03-01T00:39:52;102872.05;;;-3.70;84.67
33949;BME280;20229;49.856;19.030;2023-03-01T00:45:07;102869.30;;;-3.71;84.83
33949;BME280;20229;49.856;19.030;2023-03-01T00:50:21;102860.35;;;-3.73;84.29
33949;BME280;20229;49.856;19.030;2023-03-01T00:55:36;102863.65;;;-3.80;83.97
33949;BME280;20229;49.856;19.030;2023-03-01T01:00:50;102867.05;;;-3.85;85.88
33949;BME280;20229;49.856;19.030;2023-03-01T01:06:06;102862.46;;;-3.89;85.68
33949;BME280;20229;49.856;19.030;2023-03-01T01:11:24;102865.14;;;-3.89;85.09
33949;BME280;20229;49.856;19.030;2023-03-01T01:16:38;102869.34;;;-3.95;85.48
33949;BME280;20229;49.856;19.030;2023-03-01T01:21:52;102865.64;;;-3.99;85.08
33949;BME280;20229;49.856;19.030;2023-03-01T01:27:06;102866.34;;;-4.03;85.60
33949;BME280;20229;49.856;19.030;2023-03-01T01:32:20;102865.45;;;-4.03;85.20
33949;BME280;20229;49.856;19.030;2023-03-01T01:37:34;102863.39;;;-4.11;86.63
33949;BME280;20229;49.856;19.030;2023-03-01T01:42:50;102858.02;;;-4.12;86.32
33949;BME280;20229;49.856;19.030;2023-03-01T01:48:07;102846.36;;;-4.14;86.20
33949;BME280;20229;49.856;19.030;2023-03-01T01:53:25;102840.99;;;-4.16;85.99
33949;BME280;20229;49.856;19.030;2023-03-01T01:58:41;102835.57;;;-4.17;86.03
33949;BME280;20229;49.856;19.030;2023-03-01T02:03:55;102821.41;;;-4.16;85.98
33949;BME280;20229;49.856;19.030;2023-03-01T02:09:14;102814.16;;;-4.20;85.48
33949;BME280;20229;49.856;19.030;2023-03-01T02:14:29;102814.02;;;-4.23;85.38
33949;BME280;20229;49.856;19.030;2023-03-01T02:19:53;102807.55;;;-4.30;86.52
33949;BME280;20229;49.856;19.030;2023-03-01T02:31:07;102795.49;;;-4.43;86.40
33949;BME280;20229;49.856;19.030;2023-03-01T02:36:45;102804.27;;;-4.45;85.81
33949;BME280;20229;49.856;19.030;2023-03-01T02:42:01;102791.92;;;-4.43;86.25
33949;BME280;20229;49.856;19.030;2023-03-01T02:47:16;102794.42;;;-4.48;86.05
33949;BME280;20229;49.856;19.030;2023-03-01T02:57:56;102794.18;;;-4.54;86.01
33949;BME280;20229;49.856;19.030;2023-03-01T03:03:12;102797.74;;;-4.53;85.82
33949;BME280;20229;49.856;19.030;2023-03-01T03:08:27;102792.25;;;-4.58;86.37
33949;BME280;20229;49.856;19.030;2023-03-01T03:13:40;102792.13;;;-4.61;86.08
33949;BME280;20229;49.856;19.030;2023-03-01T03:19:01;102793.73;;;-4.66;86.09
33949;BME280;20229;49.856;19.030;2023-03-01T03:24:18;102787.54;;;-4.65;86.55
33949;BME280;20229;49.856;19.030;2023-03-01T03:29:32;102783.89;;;-4.67;86.09
33949;BME280;20229;49.856;19.030;2023-03-01T03:34:46;102794.55;;;-4.67;85.78
33949;BME280;20229;49.856;19.030;2023-03-01T03:40:00;102804.12;;;-4.72;86.68
33949;BME280;20229;49.856;19.030;2023-03-01T03:45:15;102794.25;;;-4.75;86.72
33949;BME280;20229;49.856;19.030;2023-03-01T03:50:29;102799.65;;;-4.73;86.38
33949;BME280;20229;49.856;19.030;2023-03-01T03:55:42;102792.49;;;-4.74;86.92
33949;BME280;20229;49.856;19.030;2023-03-01T04:00:57;102799.45;;;-4.78;86.99
33949;BME280;20229;49.856;19.030;2023-03-01T04:06:12;102797.56;;;-4.81;87.04
33949;BME280;20229;49.856;19.030;2023-03-01T04:11:26;102793.82;;;-4.86;86.82
33949;BME280;20229;49.856;19.030;2023-03-01T04:16:39;102797.48;;;-4.84;86.52
33949;BME280;20229;49.856;19.030;2023-03-01T04:21:53;102800.83;;;-4.88;87.14
33949;BME280;20229;49.856;19.030;2023-03-01T04:27:07;102798.98;;;-4.90;86.90
33949;BME280;20229;49.856;19.030;2023-03-01T04:32:21;102799.79;;;-4.91;86.88
33949;BME280;20229;49.856;19.030;2023-03-01T04:37:34;102797.22;;;-4.90;86.69
33949;BME280;20229;49.856;19.030;2023-03-01T04:42:49;102799.63;;;-4.96;87.94
33949;BME280;20229;49.856;19.030;2023-03-01T04:48:03;102801.43;;;-4.95;86.91
33949;BME280;20229;49.856;19.030;2023-03-01T04:53:17;102809.33;;;-4.98;87.16
33949;BME280;20229;49.856;19.030;2023-03-01T04:58:32;102805.68;;;-5.00;88.27
33949;BME280;20229;49.856;19.030;2023-03-01T05:03:49;102808.34;;;-5.00;87.36
33949;BME280;20229;49.856;19.030;2023-03-01T05:09:03;102795.80;;;-5.02;88.12
33949;BME280;20229;49.856;19.030;2023-03-01T05:14:17;102808.16;;;-5.05;87.44
33949;BME280;20229;49.856;19.030;2023-03-01T05:19:31;102804.64;;;-5.03;87.63
33949;BME280;20229;49.856;19.030;2023-03-01T05:24:46;102798.28;;;-5.07;88.48
33949;BME280;20229;49.856;19.030;2023-03-01T05:30:00;102794.77;;;-5.06;87.82
33949;BME280;20229;49.856;19.030;2023-03-01T05:35:24;102793.95;;;-5.05;87.84
33949;BME280;20229;49.856;19.030;2023-03-01T05:40:40;102791.37;;;-5.02;88.21
33949;BME280;20229;49.856;19.030;2023-03-01T05:45:53;102799.63;;;-4.96;87.86
33949;BME280;20229;49.856;19.030;2023-03-01T05:51:10;102791.11;;;-4.87;88.35
33949;BME280;20229;49.856;19.030;2023-03-01T05:56:25;102794.85;;;-4.82;88.09
33949;BME280;20229;49.856;19.030;2023-03-01T06:01:39;102788.06;;;-4.74;88.00
33949;BME280;20229;49.856;19.030;2023-03-01T06:06:53;102791.05;;;-4.66;87.82
33949;BME280;20229;49.856;19.030;2023-03-01T06:12:07;102789.83;;;-4.52;87.54
33949;BME280;20229;49.856;19.030;2023-03-01T06:17:20;102760.96;;;-4.40;87.79
33949;BME280;20229;49.856;19.030;2023-03-01T06:22:35;102769.52;;;-4.24;87.89
33949;BME280;20229;49.856;19.030;2023-03-01T06:27:49;102752.49;;;-4.04;87.97
33949;BME280;20229;49.856;19.030;2023-03-01T06:33:03;102769.49;;;-3.76;87.91
33949;BME280;20229;49.856;19.030;2023-03-01T06:38:17;102780.02;;;-3.55;88.20
33949;BME280;20229;49.856;19.030;2023-03-01T06:43:32;102774.79;;;-3.25;88.08
33949;BME280;20229;49.856;19.030;2023-03-01T06:48:46;102777.60;;;-2.94;87.30
33949;BME280;20229;49.856;19.030;2023-03-01T06:53:59;102786.29;;;-2.72;87.11
33949;BME280;20229;49.856;19.030;2023-03-01T06:59:13;102791.37;;;-2.53;85.92
33949;BME280;20229;49.856;19.030;2023-03-01T07:04:27;102792.02;;;-2.31;86.28
33949;BME280;20229;49.856;19.030;2023-03-01T07:09:45;102787.26;;;-2.11;85.14
33949;BME280;20229;49.856;19.030;2023-03-01T07:14:58;102787.80;;;-1.92;85.00
33949;BME280;20229;49.856;19.030;2023-03-01T07:20:12;102790.17;;;-1.71;84.43
33949;BME280;20229;49.856;19.030;2023-03-01T07:25:26;102779.20;;;-1.48;84.69
33949;BME280;20229;49.856;19.030;2023-03-01T07:30:40;102781.63;;;-1.23;83.86
33949;BME280;20229;49.856;19.030;2023-03-01T07:35:59;102768.91;;;-0.95;83.73
33949;BME280;20229;49.856;19.030;2023-03-01T07:41:13;102759.91;;;-0.17;83.10
33949;BME280;20229;49.856;19.030;2023-03-01T07:46:30;102729.82;;;3.97;77.19
33949;BME280;20229;49.856;19.030;2023-03-01T07:51:44;102718.53;;;8.75;56.29
33949;BME280;20229;49.856;19.030;2023-03-01T07:56:58;102712.94;;;11.29;50.86
33949;BME280;20229;49.856;19.030;2023-03-01T08:02:12;102709.41;;;11.89;47.67
33949;BME280;20229;49.856;19.030;2023-03-01T08:07:26;102701.30;;;13.75;41.83
33949;BME280;20229;49.856;19.030;2023-03-01T08:12:39;102677.64;;;15.47;41.31
33949;BME280;20229;49.856;19.030;2023-03-01T08:17:53;102671.72;;;16.88;38.42
33949;BME280;20229;49.856;19.030;2023-03-01T08:23:07;102663.05;;;18.30;37.57
33949;BME280;20229;49.856;19.030;2023-03-01T08:28:20;102643.20;;;19.16;34.57
33949;BME280;20229;49.856;19.030;2023-03-01T08:33:34;102634.75;;;19.47;31.80
33949;BME280;20229;49.856;19.030;2023-03-01T08:38:48;102644.10;;;18.54;32.36
33949;BME280;20229;49.856;19.030;2023-03-01T08:44:02;102654.19;;;15.18;35.26
33949;BME280;20229;49.856;19.030;2023-03-01T08:49:19;102668.73;;;12.63;41.14
33949;BME280;20229;49.856;19.030;2023-03-01T08:54:33;102667.63;;;11.20;43.17
33949;BME280;20229;49.856;19.030;2023-03-01T08:59:46;102672.57;;;10.35;46.13
33949;BME280;20229;49.856;19.030;2023-03-01T09:05:00;102685.34;;;9.92;47.42
33949;BME280;20229;49.856;19.030;2023-03-01T09:10:14;102674.34;;;9.55;47.91
33949;BME280;20229;49.856;19.030;2023-03-01T09:15:28;102669.18;;;9.40;48.49
33949;BME280;20229;49.856;19.030;2023-03-01T09:20:42;102669.48;;;9.26;48.53
33949;BME280;20229;49.856;19.030;2023-03-01T09:30:18;102654.00;;;8.80;48.38
33949;BME280;20229;49.856;19.030;2023-03-01T09:35:44;102676.26;;;8.52;48.94
33949;BME280;20229;49.856;19.030;2023-03-01T09:41:01;102677.23;;;8.48;48.34
33949;BME280;20229;49.856;19.030;2023-03-01T09:46:15;102671.00;;;8.40;49.39
33949;BME280;20229;49.856;19.030;2023-03-01T09:51:34;102671.16;;;8.28;48.29
33949;BME280;20229;49.856;19.030;2023-03-01T09:57:01;102675.13;;;8.05;47.62
33949;BME280;20229;49.856;19.030;2023-03-01T10:07:49;102676.61;;;8.28;50.12
33949;BME280;20229;49.856;19.030;2023-03-01T10:13:13;102674.09;;;8.14;49.26
33949;BME280;20229;49.856;19.030;2023-03-01T10:18:30;102662.20;;;8.20;49.66
33949;BME280;20229;49.856;19.030;2023-03-01T10:23:52;102670.48;;;8.13;49.62
33949;BME280;20229;49.856;19.030;2023-03-01T10:29:09;102663.19;;;8.15;49.34
33949;BME280;20229;49.856;19.030;2023-03-01T10:34:33;102652.30;;;8.15;49.48
33949;BME280;20229;49.856;19.030;2023-03-01T10:39:57;102653.10;;;8.22;50.32
33949;BME280;20229;49.856;19.030;2023-03-01T10:50:38;102652.30;;;8.15;48.84
33949;BME280;20229;49.856;19.030;2023-03-01T11:01:28;102635.98;;;8.15;50.13
33949;BME280;20229;49.856;19.030;2023-03-01T11:06:43;102618.58;;;8.26;47.31
33949;BME280;20229;49.856;19.030;2023-03-01T11:11:59;102611.57;;;8.11;45.43
33949;BME280;20229;49.856;19.030;2023-03-01T11:17:25;102609.78;;;8.08;48.01
33949;BME280;20229;49.856;19.030;2023-03-01T11:22:54;102608.81;;;8.12;48.00
33949;BME280;20229;49.856;19.030;2023-03-01T11:28:36;102603.23;;;8.22;48.19
33949;BME280;20229;49.856;19.030;2023-03-01T11:34:01;102592.16;;;8.32;50.09
33949;BME280;20229;49.856;19.030;2023-03-01T11:39:28;102584.85;;;8.36;46.98
33949;BME280;20229;49.856;19.030;2023-03-01T11:44:48;102577.72;;;8.29;45.56
33949;BME280;20229;49.856;19.030;2023-03-01T12:06:56;102578.11;;;8.06;46.48
33949;BME280;20229;49.856;19.030;2023-03-01T12:18:00;102563.45;;;8.14;46.86
33949;BME280;20229;49.856;19.030;2023-03-01T12:34:07;102536.74;;;8.40;47.97
33949;BME280;20229;49.856;19.030;2023-03-01T12:45:26;102521.97;;;8.00;45.92
33949;BME280;20229;49.856;19.030;2023-03-01T12:50:46;102520.07;;;8.05;46.21
33949;BME280;20229;49.856;19.030;2023-03-01T12:56:14;102518.32;;;8.03;45.60
33949;BME280;20229;49.856;19.030;2023-03-01T13:01:36;102505.52;;;8.09;44.89
33949;BME280;20229;49.856;19.030;2023-03-01T13:07:03;102514.58;;;8.08;44.56
33949;BME280;20229;49.856;19.030;2023-03-01T13:17:46;102502.86;;;8.05;44.20
33949;BME280;20229;49.856;19.030;2023-03-01T13:23:09;102497.55;;;7.99;45.02
33949;BME280;20229;49.856;19.030;2023-03-01T13:28:38;102494.77;;;8.00;44.75
33949;BME280;20229;49.856;19.030;2023-03-01T13:34:39;102499.48;;;7.92;42.86
33949;BME280;20229;49.856;19.030;2023-03-01T13:39:44;102495.77;;;7.96;42.60
33949;BME280;20229;49.856;19.030;2023-03-01T13:44:58;102484.23;;;7.82;40.77
33949;BME280;20229;49.856;19.030;2023-03-01T13:50:20;102478.78;;;7.82;41.17
33949;BME280;20229;49.856;19.030;2023-03-01T13:55:40;102479.64;;;7.84;42.10
33949;BME280;20229;49.856;19.030;2023-03-01T14:01:01;102469.79;;;7.77;42.24
33949;BME280;20229;49.856;19.030;2023-03-01T14:06:20;102473.35;;;7.82;44.31
33949;BME280;20229;49.856;19.030;2023-03-01T14:22:33;102452.50;;;7.81;40.12
33949;BME280;20229;49.856;19.030;2023-03-01T14:27:56;102446.20;;;7.79;41.96
33949;BME280;20229;49.856;19.030;2023-03-01T14:38:47;102452.80;;;7.62;41.27
33949;BME280;20229;49.856;19.030;2023-03-01T14:49:29;102448.35;;;7.58;43.22
33949;BME280;20229;49.856;19.030;2023-03-01T14:54:51;102455.73;;;7.50;42.28
33949;BME280;20229;49.856;19.030;2023-03-01T15:00:10;102449.59;;;7.39;42.68
33949;BME280;20229;49.856;19.030;2023-03-01T15:05:32;102443.34;;;7.31;42.25
33949;BME280;20229;49.856;19.030;2023-03-01T15:16:40;102449.13;;;7.08;41.53
33949;BME280;20229;49.856;19.030;2023-03-01T15:21:56;102445.63;;;6.98;40.91
33949;BME280;20229;49.856;19.030;2023-03-01T15:27:16;102442.25;;;6.81;41.75
33949;BME280;20229;49.856;19.030;2023-03-01T15:32:36;102445.10;;;6.70;41.05
33949;BME280;20229;49.856;19.030;2023-03-01T15:37:53;102456.12;;;6.58;40.79
33949;BME280;20229;49.856;19.030;2023-03-01T15:43:14;102452.64;;;6.45;41.88
33949;BME280;20229;49.856;19.030;2023-03-01T15:48:30;102448.29;;;6.29;41.57
33949;BME280;20229;49.856;19.030;2023-03-01T15:53:50;102451.19;;;6.15;42.84
33949;BME280;20229;49.856;19.030;2023-03-01T15:59:04;102439.60;;;5.97;43.88
33949;BME280;20229;49.856;19.030;2023-03-01T16:04:20;102439.71;;;5.81;44.46
33949;BME280;20229;49.856;19.030;2023-03-01T16:09:36;102436.28;;;5.60;45.52
33949;BME280;20229;49.856;19.030;2023-03-01T16:14:50;102434.64;;;5.38;46.23
33949;BME280;20229;49.856;19.030;2023-03-01T16:20:07;102444.73;;;5.14;47.22
33949;BME280;20229;49.856;19.030;2023-03-01T16:25:22;102452.09;;;4.89;47.87
33949;BME280;20229;49.856;19.030;2023-03-01T16:30:39;102450.41;;;4.64;49.06
33949;BME280;20229;49.856;19.030;2023-03-01T16:35:53;102448.70;;;4.38;49.61
33949;BME280;20229;49.856;19.030;2023-03-01T16:41:12;102442.42;;;4.13;50.17
33949;BME280;20229;49.856;19.030;2023-03-01T16:46:28;102439.76;;;3.92;50.89
33949;BME280;20229;49.856;19.030;2023-03-01T16:51:42;102450.60;;;3.69;52.01
33949;BME280;20229;49.856;19.030;2023-03-01T16:57:00;102455.09;;;3.44;52.34
33949;BME280;20229;49.856;19.030;2023-03-01T17:02:14;102459.55;;;3.19;53.44
33949;BME280;20229;49.856;19.030;2023-03-01T17:07:33;102463.11;;;2.98;54.26
33949;BME280;20229;49.856;19.030;2023-03-01T17:12:48;102471.12;;;2.76;55.08
33949;BME280;20229;49.856;19.030;2023-03-01T17:18:03;102467.43;;;2.56;55.69
33949;BME280;20229;49.856;19.030;2023-03-01T17:23:17;102479.92;;;2.38;56.60
33949;BME280;20229;49.856;19.030;2023-03-01T17:28:33;102486.11;;;2.19;57.32
33949;BME280;20229;49.856;19.030;2023-03-01T17:33:47;102488.65;;;1.99;57.82
33949;BME280;20229;49.856;19.030;2023-03-01T17:39:02;102498.38;;;1.83;58.21
33949;BME280;20229;49.856;19.030;2023-03-01T17:44:17;102497.33;;;1.66;59.14
33949;BME280;20229;49.856;19.030;2023-03-01T17:49:30;102507.10;;;1.53;60.30
33949;BME280;20229;49.856;19.030;2023-03-01T17:54:44;102504.23;;;1.36;60.43
33949;BME280;20229;49.856;19.030;2023-03-01T17:59:58;102505.88;;;1.22;61.17
33949;BME280;20229;49.856;19.030;2023-03-01T18:05:12;102495.86;;;1.09;61.99
33949;BME280;20229;49.856;19.030;2023-03-01T18:10:26;102487.63;;;0.93;62.76
33949;BME280;20229;49.856;19.030;2023-03-01T18:15:40;102480.30;;;0.80;63.58
33949;BME280;20229;49.856;19.030;2023-03-01T18:20:58;102489.12;;;0.70;63.68
33949;BME280;20229;49.856;19.030;2023-03-01T18:26:14;102474.56;;;0.53;63.92
33949;BME280;20229;49.856;19.030;2023-03-01T18:31:32;102475.30;;;0.39;64.67
33949;BME280;20229;49.856;19.030;2023-03-01T18:36:46;102465.22;;;0.24;65.24
33949;BME280;20229;49.856;19.030;2023-03-01T18:42:00;102464.17;;;0.13;65.57
33949;BME280;20229;49.856;19.030;2023-03-01T18:47:16;102470.33;;;0.05;66.10
33949;BME280;20229;49.856;19.030;2023-03-01T18:52:29;102465.69;;;-0.06;66.38
33949;BME280;20229;49.856;19.030;2023-03-01T18:57:43;102463.73;;;-0.16;68.96
33949;BME280;20229;49.856;19.030;2023-03-01T19:02:58;102469.79;;;-0.29;68.11
33949;BME280;20229;49.856;19.030;2023-03-01T19:08:14;102465.13;;;-0.41;69.97
33949;BME280;20229;49.856;19.030;2023-03-01T19:13:28;102474.79;;;-0.51;68.85
33949;BME280;20229;49.856;19.030;2023-03-01T19:18:44;102472.03;;;-0.55;69.37
33949;BME280;20229;49.856;19.030;2023-03-01T19:24:04;102476.38;;;-0.62;70.19
33949;BME280;20229;49.856;19.030;2023-03-01T19:29:18;102479.90;;;-0.66;70.28
33949;BME280;20229;49.856;19.030;2023-03-01T19:34:32;102483.34;;;-0.73;70.61
33949;BME280;20229;49.856;19.030;2023-03-01T19:39:46;102477.84;;;-0.81;71.03
33949;BME280;20229;49.856;19.030;2023-03-01T19:45:00;102479.49;;;-0.87;70.73
33949;BME280;20229;49.856;19.030;2023-03-01T19:50:14;102472.16;;;-0.98;71.24
33949;BME280;20229;49.856;19.030;2023-03-01T19:55:28;102478.21;;;-1.08;71.23
33949;BME280;20229;49.856;19.030;2023-03-01T20:00:44;102479.09;;;-1.09;72.44
33949;BME280;20229;49.856;19.030;2023-03-01T20:05:59;102475.41;;;-1.14;72.04
33949;BME280;20229;49.856;19.030;2023-03-01T20:11:18;102470.77;;;-1.23;71.73
33949;BME280;20229;49.856;19.030;2023-03-01T20:16:31;102471.47;;;-1.31;72.23
33949;BME280;20229;49.856;19.030;2023-03-01T20:21:45;102465.95;;;-1.40;72.73
33949;BME280;20229;49.856;19.030;2023-03-01T20:27:02;102460.45;;;-1.47;73.76
33949;BME280;20229;49.856;19.030;2023-03-01T20:32:16;102456.71;;;-1.55;73.54
33949;BME280;20229;49.856;19.030;2023-03-01T20:37:30;102445.86;;;-1.61;73.67
33949;BME280;20229;49.856;19.030;2023-03-01T20:42:44;102453.73;;;-1.69;73.58
33949;BME280;20229;49.856;19.030;2023-03-01T20:47:58;102455.45;;;-1.72;73.97
33949;BME280;20229;49.856;19.030;2023-03-01T20:53:12;102461.46;;;-1.82;74.69
33949;BME280;20229;49.856;19.030;2023-03-01T20:58:26;102470.22;;;-1.89;74.81
33949;BME280;20229;49.856;19.030;2023-03-01T21:03:46;102473.57;;;-1.98;74.57
33949;BME280;20229;49.856;19.030;2023-03-01T21:08:59;102468.04;;;-2.06;74.50
33949;BME280;20229;49.856;19.030;2023-03-01T21:14:14;102483.92;;;-2.13;76.29
33949;BME280;20229;49.856;19.030;2023-03-01T21:19:35;102480.17;;;-2.22;75.19
33949;BME280;20229;49.856;19.030;2023-03-01T21:24:51;102494.21;;;-2.30;75.57
33949;BME280;20229;49.856;19.030;2023-03-01T21:30:06;102488.72;;;-2.36;74.83
33949;BME280;20229;49.856;19.030;2023-03-01T21:35:20;102485.01;;;-2.42;76.85
33949;BME280;20229;49.856;19.030;2023-03-01T21:40:35;102471.53;;;-2.46;76.34
33949;BME280;20229;49.856;19.030;2023-03-01T21:45:49;102465.04;;;-2.56;76.38
33949;BME280;20229;49.856;19.030;2023-03-01T21:51:03;102463.26;;;-2.57;75.88
33949;BME280;20229;49.856;19.030;2023-03-01T21:56:19;102449.72;;;-2.63;76.37
33949;BME280;20229;49.856;19.030;2023-03-01T22:01:33;102454.98;;;-2.66;76.88
33949;BME280;20229;49.856;19.030;2023-03-01T22:06:47;102461.90;;;-2.74;76.63
33949;BME280;20229;49.856;19.030;2023-03-01T22:12:01;102460.87;;;-2.79;77.08
33949;BME280;20229;49.856;19.030;2023-03-01T22:17:16;102460.63;;;-2.89;78.87
33949;BME280;20229;49.856;19.030;2023-03-01T22:22:29;102464.02;;;-2.96;77.85
33949;BME280;20229;49.856;19.030;2023-03-01T22:27:45;102470.95;;;-3.02;77.85
33949;BME280;20229;49.856;19.030;2023-03-01T22:32:59;102482.42;;;-3.06;78.13
33949;BME280;20229;49.856;19.030;2023-03-01T22:38:13;102475.13;;;-3.12;79.82
33949;BME280;20229;49.856;19.030;2023-03-01T22:43:28;102477.61;;;-3.18;78.44
33949;BME280;20229;49.856;19.030;2023-03-01T22:48:43;102466.78;;;-3.24;78.67
33949;BME280;20229;49.856;19.030;2023-03-01T22:53:57;102462.16;;;-3.30;78.55
33949;BME280;20229;49.856;19.030;2023-03-01T22:59:14;102466.52;;;-3.33;80.43
33949;BME280;20229;49.856;19.030;2023-03-01T23:04:28;102471.75;;;-3.37;79.65
33949;BME280;20229;49.856;19.030;2023-03-01T23:09:42;102468.06;;;-3.42;79.07
33949;BME280;20229;49.856;19.030;2023-03-01T23:14:55;102475.02;;;-3.47;80.45
33949;BME280;20229;49.856;19.030;2023-03-01T23:20:10;102462.26;;;-3.57;79.55
33949;BME280;20229;49.856;19.030;2023-03-01T23:25:26;102454.12;;;-3.62;80.43
33949;BME280;20229;49.856;19.030;2023-03-01T23:30:40;102452.13;;;-3.69;79.72
33949;BME280;20229;49.856;19.030;2023-03-01T23:35:58;102452.95;;;-3.71;79.79
33949;BME280;20229;49.856;19.030;2023-03-01T23:41:18;102451.88;;;-3.78;80.62
33949;BME280;20229;49.856;19.030;2023-03-01T23:46:34;102450.02;;;-3.80;81.45
33949;BME280;20229;49.856;19.030;2023-03-01T23:51:48;102454.28;;;-3.86;80.94
33949;BME280;20229;49.856;19.030;2023-03-01T23:57:02;102454.12;;;-3.92;81.99
